Terminal Aerodrome Forecast
Issued by NWS

Current Version | Previous Version | Text Only | Print | Product List | Glossary Off
Versions: 1 2 3 4 5 6 7 8 9 10 11 12 13 14 15 16 17 18 19 20 21 22 23 24 25 26 27 28 29 30 31 32 33 34 35 36 37 38 39 40 41 42

000
FTUS41 KRNK 241141
TAFLWB
TAF
KLWB 241141Z 2412/2512 00000KT 2SM BR SCT001 OVC020
      TEMPO 2412/2413 1/2SM FG OVC001
     FM241400 29005KT P6SM VCTS BKN030CB
      TEMPO 2414/2415 2SM SHRA BKN020
     FM241800 31007KT P6SM BKN050
     FM250600 00000KT 2SM BR SCT001
     FM250800 00000KT 1/4SM FG OVC001=

USA.gov is the U.S. government's official web portal to all federal, state and local government web resources and services.